CheckWX is a tool to help pilots better visualize weather data.  It is not intended as a substitute for an official pre-flight weather briefing.

08:24:21 UTC

KHCR TAF
Heber City Municipal - Russ McDonald Field Airport
Heber, Utah, USA
KHCR 280530Z 2806/2906 VRB04KT P6SM BKN060 BKN100 FM281900 24005KT P6SM BKN050 BKN100 FM290300 VRB03KT P6SM FEW100

Mar-28@
06:00 UTC

Mar-28 @ 06:00 UTC

Mar-28@
19:00 UTC

Mar-28 @ 19:00 UTC

TAF KHCR 280530Z 2806/2906 VRB04KT P6SM BKN060 BKN100
Wind
  • Variable at 4 KTS
Cloud Levels
  • Broken at 6,000' AGL
  • Broken at 10,000' AGL

Mar-28@
19:00 UTC

Mar-28 @ 19:00 UTC

Mar-29@
03:00 UTC

Mar-29 @ 03:00 UTC

FM281900 24005KT P6SM BKN050 BKN100

From

From Standard forecast or significant change

Wind
  • 240° at 5 KTS
Cloud Levels
  • Broken at 5,000' AGL
  • Broken at 10,000' AGL

Mar-29@
03:00 UTC

Mar-29 @ 03:00 UTC

Mar-29@
06:00 UTC

Mar-29 @ 06:00 UTC

FM290300 VRB03KT P6SM FEW100

From

From Standard forecast or significant change

Wind
  • Variable at 3 KTS
Cloud Levels
  • Few at 10,000' AGL